Time;durP1;ratioP1;P1;durP2;ratioP2;P2;SDS_P1;SDS_P2;PMS_P1;PMS_P2;Temp;Humidity;BMP_temperature;BMP_pressure;BME280_temperature;BME280_humidity;BME280_pressure;Samples;Min_cycle;Max_cycle;Signal;HPM_P1;HPM_P2
2023/07/02 19:16:43;;;;;;;7.30;5.50;;;;;;;23.38;100.00;99569.55;102992;1286;613365;-65
2023/07/02 19:19:11;;;;;;;21.80;7.60;;;;;;;23.36;100.00;99572.39;104708;1266;100997;-67
2023/07/02 19:21:39;;;;;;;6.90;5.10;;;;;;;23.28;100.00;99574.39;104776;1266;59383;-65
2023/07/02 19:24:07;;;;;;;9.40;5.60;;;;;;;23.19;100.00;99571.25;104642;1269;71043;-65
2023/07/02 19:26:35;;;;;;;6.50;4.80;;;;;;;23.10;100.00;99573.69;104499;1265;67778;-67
2023/07/02 19:29:03;;;;;;;8.40;5.20;;;;;;;23.00;100.00;99582.46;104865;1267;72798;-68
2023/07/02 19:31:31;;;;;;;5.40;4.10;;;;;;;22.91;100.00;99581.69;104616;1270;61189;-67
2023/07/02 19:34:00;;;;;;;5.20;4.30;;;;;;;22.83;100.00;99583.98;104659;1266;60099;-66
2023/07/02 19:36:28;;;;;;;6.40;4.20;;;;;;;22.75;100.00;99589.16;105113;1256;71045;-66
2023/07/02 19:38:56;;;;;;;6.40;4.30;;;;;;;22.67;100.00;99590.13;105283;1259;65656;-66
2023/07/02 19:41:23;;;;;;;6.20;4.80;;;;;;;22.59;100.00;99592.27;105216;1256;72727;-66
2023/07/02 19:43:51;;;;;;;8.10;4.20;;;;;;;22.50;100.00;99591.80;105073;1256;61658;-66
2023/07/02 19:52:40;;;;;;;4.80;4.10;;;;;;;22.33;100.00;99600.75;101926;1296;600436;-66
2023/07/02 19:55:13;;;;;;;5.70;4.10;;;;;;;22.29;100.00;99603.48;104882;1270;60078;-66
2023/07/02 19:57:41;;;;;;;5.50;4.10;;;;;;;22.25;100.00;99607.65;104689;1267;60821;-67
2023/07/02 20:00:10;;;;;;;5.90;3.80;;;;;;;22.22;100.00;99611.02;104448;1270;72869;-66
2023/07/02 20:02:40;;;;;;;;;;;;;;;22.18;100.00;99614.02;104462;1272;65764;-66
2023/07/02 20:05:09;;;;;;;4.10;3.60;;;;;;;22.13;100.00;99615.84;105252;1256;202019;-67
2023/07/02 20:07:38;;;;;;;7.50;4.10;;;;;;;22.09;100.00;99617.97;105595;1251;59322;-67
2023/07/02 20:10:06;;;;;;;6.00;4.00;;;;;;;22.06;100.00;99618.78;105322;1257;59353;-66
2023/07/02 20:12:34;;;;;;;8.30;4.40;;;;;;;22.05;100.00;99620.70;105316;1253;72220;-66
2023/07/02 20:15:03;;;;;;;8.40;4.20;;;;;;;22.02;100.00;99626.45;105361;1253;65675;-66
2023/07/02 20:17:33;;;;;;;5.10;4.50;;;;;;;21.98;100.00;99629.55;105718;1253;73315;-66
2023/07/02 20:20:02;;;;;;;6.20;4.60;;;;;;;21.92;100.00;99638.45;105256;1257;60580;-67
2023/07/02 20:22:29;;;;;;;6.10;4.20;;;;;;;21.87;100.00;99630.52;105496;1253;59625;-66
2023/07/02 20:24:57;;;;;;;6.90;4.80;;;;;;;21.83;100.00;99636.11;105343;1256;60133;-64
2023/07/02 20:27:45;;;;;;;6.70;4.90;;;;;;;21.80;100.00;99637.08;105224;1257;67474;-65
2023/07/02 20:30:13;;;;;;;7.30;5.40;;;;;;;21.78;100.00;99637.66;105358;1257;72732;-66
2023/07/02 20:32:41;;;;;;;9.20;4.90;;;;;;;21.75;100.00;99640.80;105274;1258;60099;-66
2023/07/02 20:35:09;;;;;;;6.50;4.40;;;;;;;21.70;100.00;99637.64;105734;1254;59996;-68
2023/07/02 20:37:37;;;;;;;6.30;4.50;;;;;;;21.68;100.00;99644.30;105239;1256;73930;-66
2023/07/02 20:47:58;;;;;;;8.10;4.60;;;;;;;21.62;100.00;99644.30;101780;1292;599558;-65
2023/07/02 20:50:26;;;;;;;4.70;3.90;;;;;;;21.56;100.00;99645.54;104295;1273;60053;-65
2023/07/02 20:52:54;;;;;;;7.70;5.00;;;;;;;21.53;100.00;99649.70;104888;1272;59394;-66
2023/07/02 20:55:21;;;;;;;6.00;4.90;;;;;;;21.51;100.00;99653.03;104251;1267;71045;-66
2023/07/02 20:57:49;;;;;;;6.10;4.60;;;;;;;21.50;100.00;99653.04;104381;1267;66014;-65
2023/07/02 21:00:17;;;;;;;10.30;5.30;;;;;;;21.49;100.00;99657.39;104241;1271;71450;-67
2023/07/02 21:02:44;;;;;;;7.90;5.20;;;;;;;21.46;100.00;99662.70;105650;1264;187264;-65
2023/07/02 21:05:12;;;;;;;8.10;4.40;;;;;;;21.42;100.00;99666.54;108343;1266;60097;-66
2023/07/02 21:07:40;;;;;;;6.20;4.80;;;;;;;21.37;100.00;99669.94;108913;1255;72393;-67
2023/07/02 21:10:08;;;;;;;8.70;5.00;;;;;;;21.37;100.00;99672.66;108971;1254;67099;-66
2023/07/02 21:12:36;;;;;;;7.30;4.40;;;;;;;21.37;100.00;99673.80;105252;1259;73168;-66
2023/07/02 21:15:04;;;;;;;8.70;4.60;;;;;;;21.35;100.00;99670.77;105135;1259;61674;-65
2023/07/02 21:17:32;;;;;;;8.40;4.70;;;;;;;21.34;100.00;99674.61;105417;1260;60077;-67
2023/07/02 21:19:59;;;;;;;6.70;4.10;;;;;;;21.33;100.00;99675.66;105075;1259;73100;-66
2023/07/02 21:22:28;;;;;;;7.50;4.20;;;;;;;21.34;100.00;99673.65;105218;1257;67830;-66
2023/07/02 21:24:55;;;;;;;6.80;3.70;;;;;;;21.36;100.00;99669.50;105200;1254;72701;-66
2023/07/02 21:27:23;;;;;;;7.80;4.60;;;;;;;21.38;100.00;99664.37;105089;1259;60544;-66
2023/07/02 21:29:54;;;;;;;5.80;3.70;;;;;;;21.39;100.00;99667.53;105240;1259;60009;-67
2023/07/02 21:32:22;;;;;;;6.20;3.80;;;;;;;21.41;100.00;99664.79;105375;1260;71816;-68
2023/07/02 21:34:52;;;;;;;5.60;3.20;;;;;;;21.42;100.00;99671.46;105363;1259;66081;-68
2023/07/02 21:37:20;;;;;;;5.90;3.30;;;;;;;21.43;100.00;99664.77;105197;1255;72684;-66
2023/07/02 21:39:48;;;;;;;4.90;2.90;;;;;;;21.46;100.00;99658.52;105796;1261;60442;-67
2023/07/02 21:42:15;;;;;;;5.80;3.00;;;;;;;21.51;100.00;99655.27;104823;1254;60047;-68
2023/07/02 21:44:43;;;;;;;5.00;2.90;;;;;;;21.53;100.00;99656.33;104986;1259;73060;-68
2023/07/02 21:47:10;;;;;;;4.50;3.20;;;;;;;21.52;100.00;99656.54;105104;1254;65629;-68
2023/07/02 21:49:38;;;;;;;4.80;3.30;;;;;;;21.51;100.00;99656.85;105466;1257;71478;-68
2023/07/02 21:52:06;;;;;;;6.40;2.70;;;;;;;21.51;100.00;99653.23;104859;1258;59653;-69
2023/07/02 21:54:34;;;;;;;6.00;3.30;;;;;;;21.49;100.00;99649.64;105187;1258;59540;-65
2023/07/02 21:57:02;;;;;;;4.40;2.80;;;;;;;21.47;100.00;99651.77;105174;1259;73115;-65
2023/07/02 21:59:30;;;;;;;6.20;2.90;;;;;;;21.46;100.00;99653.11;105259;1254;65676;-65
2023/07/02 22:01:58;;;;;;;4.10;2.70;;;;;;;21.43;100.00;99652.26;105182;1259;72759;-66
2023/07/02 22:04:26;;;;;;;7.10;2.90;;;;;;;21.39;100.00;99659.59;105397;1261;60245;-67
2023/07/02 22:06:54;;;;;;;4.30;3.20;;;;;;;21.37;100.00;99661.23;105214;1254;60091;-65
2023/07/02 22:09:21;;;;;;;4.00;2.60;;;;;;;21.34;100.00;99661.61;105181;1254;73135;-68
2023/07/02 22:11:49;;;;;;;6.30;3.30;;;;;;;21.31;100.00;99661.80;105527;1254;66964;-69
2023/07/02 22:14:17;;;;;;;5.60;3.30;;;;;;;21.30;100.00;99663.67;105058;1258;71878;-67
2023/07/02 22:16:45;;;;;;;5.00;2.80;;;;;;;21.29;100.00;99663.60;105265;1258;59752;-68
2023/07/02 22:26:58;;;;;;;4.40;2.70;;;;;;;21.23;100.00;99659.59;102023;1294;600180;-66
2023/07/02 22:29:26;;;;;;;4.20;2.50;;;;;;;21.18;100.00;99661.09;104553;1265;61686;-67
2023/07/02 22:31:54;;;;;;;4.60;2.60;;;;;;;21.13;100.00;99663.69;104417;1264;60539;-66
2023/07/02 22:34:22;;;;;;;6.60;3.60;;;;;;;21.09;100.00;99665.12;104597;1267;70998;-67
2023/07/02 22:36:50;;;;;;;5.20;2.90;;;;;;;21.05;100.00;99668.89;104779;1264;65777;-66
2023/07/02 22:39:18;;;;;;;4.40;2.60;;;;;;;21.00;100.00;99671.44;104832;1269;71438;-69
2023/07/02 22:41:46;;;;;;;7.10;3.40;;;;;;;20.94;100.00;99670.52;104609;1264;192514;-66
2023/07/02 22:44:14;;;;;;;3.50;2.80;;;;;;;20.88;100.00;99676.84;104793;1261;59338;-67
2023/07/02 22:46:42;;;;;;;4.00;2.40;;;;;;;20.83;100.00;99680.40;104785;1264;70979;-66
2023/07/02 22:49:09;;;;;;;4.70;2.60;;;;;;;20.80;100.00;99675.36;104808;1264;65640;-66
2023/07/02 22:51:37;;;;;;;6.40;2.80;;;;;;;20.77;100.00;99676.04;104926;1264;72581;-68
2023/07/02 22:54:05;;;;;;;5.50;3.10;;;;;;;20.76;100.00;99678.89;104383;1266;59739;-67
2023/07/02 22:56:32;;;;;;;4.30;2.80;;;;;;;20.75;100.00;99679.27;104705;1264;59631;-66
2023/07/02 22:59:00;;;;;;;4.10;2.50;;;;;;;20.72;100.00;99679.91;105564;1256;73069;-66
2023/07/02 23:01:28;;;;;;;4.90;2.50;;;;;;;20.70;100.00;99684.47;105419;1257;66890;-66
2023/07/02 23:03:56;;;;;;;6.60;2.30;;;;;;;20.67;100.00;99683.71;105962;1251;72719;-68
2023/07/02 23:06:26;;;;;;;6.90;2.70;;;;;;;20.65;100.00;99686.05;105553;1254;60769;-66
2023/07/02 23:08:53;;;;;;;4.90;2.50;;;;;;;20.63;100.00;99679.10;105539;1256;60077;-66
2023/07/02 23:11:21;;;;;;;3.90;2.50;;;;;;;20.62;100.00;99681.17;105556;1251;73087;-66
2023/07/02 23:13:49;;;;;;;3.80;2.40;;;;;;;20.61;100.00;99679.95;106021;1254;66849;-68
2023/07/02 23:16:17;;;;;;;4.50;2.70;;;;;;;20.59;100.00;99677.61;105275;1251;73275;-66
2023/07/02 23:18:45;;;;;;;5.10;2.70;;;;;;;20.57;100.00;99679.61;105570;1255;59700;-68
2023/07/02 23:21:13;;;;;;;4.20;2.60;;;;;;;20.55;100.00;99682.23;105686;1257;59670;-66
2023/07/02 23:23:42;;;;;;;5.00;2.80;;;;;;;20.54;100.00;99681.75;105582;1251;71816;-67
2023/07/02 23:26:17;;;;;;;5.60;2.80;;;;;;;20.51;100.00;99682.37;105822;1251;66021;-67
2023/07/02 23:28:52;;;;;;;4.90;2.70;;;;;;;20.48;100.00;99680.38;105334;1257;72949;-68
2023/07/02 23:31:23;;;;;;;5.60;2.50;;;;;;;20.46;100.00;99677.36;105395;1251;61497;-68
2023/07/02 23:33:51;;;;;;;;;;;;;;;20.45;100.00;99679.89;105107;1257;59627;-67
2023/07/02 23:36:21;;;;;;;5.40;2.60;;;;;;;20.43;100.00;99677.73;105594;1251;71604;-66
2023/07/02 23:38:49;;;;;;;4.20;2.60;;;;;;;20.41;100.00;99677.71;105438;1257;67291;-66
2023/07/02 23:41:18;;;;;;;5.50;2.90;;;;;;;20.40;100.00;99676.98;105737;1254;72669;-68
2023/07/02 23:43:47;;;;;;;4.20;2.70;;;;;;;20.39;100.00;99674.80;105596;1256;60429;-66
2023/07/02 23:46:14;;;;;;;3.80;2.60;;;;;;;20.37;100.00;99674.67;105571;1254;59496;-66
2023/07/02 23:48:42;;;;;;;3.60;2.70;;;;;;;20.36;100.00;99672.62;105212;1251;73195;-67
2023/07/02 23:58:57;;;;;;;7.60;2.90;;;;;;;20.34;100.00;99665.31;101985;1293;600288;-68
